createdAt,value
2023-02-24T00:02:06.225Z,23.62
2023-02-24T00:04:40.668Z,23.56
2023-02-24T00:07:14.474Z,23.51
2023-02-24T00:09:44.799Z,23.51
2023-02-24T00:12:16.372Z,23.51
2023-02-24T00:14:54.119Z,23.43
2023-02-24T00:17:27.843Z,23.39
2023-02-24T00:20:01.593Z,23.39
2023-02-24T00:22:37.420Z,23.35
2023-02-24T00:25:08.622Z,23.31
2023-02-24T00:27:39.030Z,23.23
2023-02-24T00:30:12.468Z,23.18
2023-02-24T00:32:41.191Z,23.19
2023-02-24T00:35:11.077Z,23.23
2023-02-24T00:37:41.980Z,23.18
2023-02-24T00:40:12.987Z,23.16
2023-02-24T00:42:43.562Z,23.15
2023-02-24T00:45:16.908Z,23.21
2023-02-24T00:47:53.268Z,23.18
2023-02-24T00:50:29.025Z,23.20
2023-02-24T00:52:59.697Z,23.18
2023-02-24T00:55:36.431Z,23.15
2023-02-24T00:58:12.958Z,23.15
2023-02-24T01:00:47.931Z,23.15
2023-02-24T01:03:17.541Z,23.16
2023-02-24T01:05:45.401Z,23.16
2023-02-24T01:08:21.603Z,23.20
2023-02-24T01:11:18.282Z,23.12
2023-02-24T01:13:51.067Z,23.15
2023-02-24T01:16:26.703Z,23.13
2023-02-24T01:18:56.989Z,23.11
2023-02-24T01:21:35.509Z,23.11
2023-02-24T01:24:10.579Z,23.11
2023-02-24T01:26:41.350Z,23.13
2023-02-24T01:29:14.489Z,23.12
2023-02-24T01:31:48.812Z,23.12
2023-02-24T01:34:19.340Z,23.12
2023-02-24T01:36:54.153Z,23.09
2023-02-24T01:39:22.279Z,23.10
2023-02-24T01:41:53.279Z,23.14
2023-02-24T01:44:27.292Z,23.14
2023-02-24T01:47:03.873Z,23.17
2023-02-24T01:49:46.049Z,23.11
2023-02-24T01:52:27.686Z,23.06
2023-02-24T01:55:10.637Z,23.11
2023-02-24T01:57:46.116Z,23.02
2023-02-24T02:00:40.249Z,22.98
2023-02-24T02:03:32.492Z,23.00
2023-02-24T02:06:12.078Z,23.01
2023-02-24T02:08:45.595Z,23.02
2023-02-24T02:11:23.774Z,23.04
2023-02-24T02:13:56.856Z,23.11
2023-02-24T02:16:55.900Z,23.06
2023-02-24T02:19:45.353Z,23.23
2023-02-24T02:22:38.446Z,23.25
2023-02-24T02:25:09.552Z,23.34
2023-02-24T02:28:15.184Z,23.30
2023-02-24T02:31:01.939Z,23.32
2023-02-24T02:33:54.499Z,23.36
2023-02-24T02:36:52.513Z,23.32
2023-02-24T02:39:34.568Z,23.41
2023-02-24T02:42:15.775Z,23.38
2023-02-24T02:45:06.463Z,23.34
2023-02-24T02:48:02.769Z,23.27
2023-02-24T02:50:45.979Z,23.19
2023-02-24T02:53:24.661Z,23.15
2023-02-24T02:56:06.749Z,23.10
2023-02-24T02:58:53.224Z,23.07
2023-02-24T03:01:29.212Z,22.98
2023-02-24T03:04:07.391Z,23.02
2023-02-24T03:07:07.641Z,23.02
2023-02-24T03:09:40.080Z,22.97
2023-02-24T03:12:17.557Z,22.99
2023-02-24T03:14:51.210Z,22.97
2023-02-24T03:17:26.927Z,22.98
2023-02-24T03:20:17.760Z,22.97
2023-02-24T03:23:05.084Z,22.99
2023-02-24T03:25:44.547Z,22.93
2023-02-24T03:28:24.550Z,22.98
2023-02-24T03:31:07.054Z,22.96
2023-02-24T03:34:07.473Z,22.94
2023-02-24T03:36:44.560Z,23.07
2023-02-24T03:39:17.948Z,23.01
2023-02-24T03:42:05.426Z,23.00
2023-02-24T03:44:46.866Z,22.97
2023-02-24T03:47:16.636Z,23.00
2023-02-24T03:49:50.540Z,23.04
2023-02-24T03:52:32.651Z,22.95
2023-02-24T03:55:22.467Z,22.90
2023-02-24T03:58:22.944Z,22.88
2023-02-24T04:01:06.496Z,22.88
2023-02-24T04:03:57.710Z,22.90
2023-02-24T04:06:56.265Z,22.86
2023-02-24T04:09:28.123Z,22.87
2023-02-24T04:12:15.536Z,22.86
2023-02-24T04:15:11.806Z,22.91
2023-02-24T04:17:49.021Z,22.96
2023-02-24T04:20:27.913Z,22.96
2023-02-24T04:23:16.796Z,22.94
2023-02-24T04:25:56.345Z,23.04
2023-02-24T04:28:31.206Z,23.00
2023-02-24T04:31:13.102Z,22.99
2023-02-24T04:33:44.460Z,23.00
2023-02-24T04:36:15.299Z,22.89
2023-02-24T04:38:43.611Z,22.85
2023-02-24T04:41:21.018Z,22.93
2023-02-24T04:43:53.131Z,22.91
2023-02-24T04:46:23.772Z,22.90
2023-02-24T04:48:57.235Z,22.94
2023-02-24T04:51:24.669Z,22.75
2023-02-24T04:53:57.562Z,22.83
2023-02-24T04:56:28.995Z,22.85
2023-02-24T04:59:03.082Z,22.82
2023-02-24T05:01:31.640Z,22.82
2023-02-24T05:04:01.962Z,22.80
2023-02-24T05:06:29.626Z,22.79
2023-02-24T05:09:02.851Z,22.82
2023-02-24T05:11:36.604Z,22.83
2023-02-24T05:14:07.789Z,22.95
2023-02-24T05:16:42.766Z,22.86
2023-02-24T05:19:48.264Z,22.78
2023-02-24T05:22:18.772Z,22.80
2023-02-24T05:24:50.174Z,22.89
2023-02-24T05:27:24.532Z,22.90
2023-02-24T05:29:55.834Z,22.90
2023-02-24T05:32:25.456Z,22.97
2023-02-24T05:35:01.197Z,22.93
2023-02-24T05:37:34.083Z,22.88
2023-02-24T05:40:10.228Z,22.99
2023-02-24T05:42:46.461Z,22.91
2023-02-24T05:45:14.767Z,22.97
2023-02-24T05:47:46.636Z,22.89
2023-02-24T05:50:26.498Z,22.90
2023-02-24T05:53:19.627Z,22.93
2023-02-24T05:55:47.906Z,22.94
2023-02-24T05:58:17.681Z,22.80
2023-02-24T06:00:46.454Z,22.74
2023-02-24T06:03:30.886Z,22.73
2023-02-24T06:06:09.097Z,22.77
2023-02-24T06:08:43.689Z,22.73
2023-02-24T06:11:14.227Z,22.85
2023-02-24T06:13:48.272Z,22.79
2023-02-24T06:16:19.309Z,22.93
2023-02-24T06:18:50.043Z,22.90
2023-02-24T06:21:23.450Z,22.95
2023-02-24T06:23:53.703Z,22.91
2023-02-24T06:26:33.680Z,22.92
2023-02-24T06:29:05.682Z,22.99
2023-02-24T06:31:39.750Z,22.94
2023-02-24T06:34:14.674Z,22.94
2023-02-24T06:36:49.145Z,22.96
2023-02-24T06:39:19.724Z,23.10
2023-02-24T06:41:52.369Z,23.05
2023-02-24T06:44:20.362Z,23.10
2023-02-24T06:46:48.191Z,23.13
2023-02-24T06:49:21.434Z,23.14
2023-02-24T06:51:50.373Z,23.17
2023-02-24T06:54:29.112Z,23.19
2023-02-24T06:56:59.463Z,23.03
2023-02-24T06:59:29.804Z,22.98
2023-02-24T07:01:58.889Z,23.15
2023-02-24T07:04:43.507Z,23.29
2023-02-24T07:07:17.423Z,23.54
2023-02-24T07:09:46.316Z,23.38
2023-02-24T07:12:18.208Z,23.62
2023-02-24T07:14:53.971Z,23.53
2023-02-24T07:17:24.944Z,23.38
2023-02-24T07:20:02.264Z,23.40
2023-02-24T07:22:35.296Z,23.34
2023-02-24T07:25:07.278Z,23.27
2023-02-24T07:27:40.518Z,23.31
2023-02-24T07:30:12.272Z,23.32
2023-02-24T07:32:42.707Z,23.35
2023-02-24T07:35:16.056Z,23.24
2023-02-24T07:37:51.063Z,23.23
2023-02-24T07:40:26.156Z,23.23
2023-02-24T07:42:57.446Z,23.31
2023-02-24T07:45:36.339Z,23.16
2023-02-24T07:48:12.552Z,23.23
2023-02-24T07:50:46.187Z,23.09
2023-02-24T07:53:19.651Z,23.09
2023-02-24T07:55:53.914Z,23.03
2023-02-24T07:58:31.203Z,23.12
2023-02-24T08:01:08.842Z,23.18
2023-02-24T08:03:41.652Z,23.26
2023-02-24T08:06:27.116Z,23.28
2023-02-24T08:09:26.826Z,23.35
2023-02-24T08:13:03.961Z,23.29
2023-02-24T08:15:34.511Z,23.24
2023-02-24T08:18:03.219Z,23.17
2023-02-24T08:20:52.485Z,23.13
2023-02-24T08:23:23.568Z,23.26
2023-02-24T08:25:53.836Z,23.32
2023-02-24T08:28:27.495Z,23.30
2023-02-24T08:30:55.422Z,23.25
2023-02-24T08:33:30.421Z,23.19
2023-02-24T08:36:02.381Z,23.21
2023-02-24T08:38:45.126Z,23.09
2023-02-24T08:41:26.568Z,23.12
2023-02-24T08:43:54.410Z,23.11
2023-02-24T08:46:32.865Z,23.17
2023-02-24T08:49:10.704Z,23.23
2023-02-24T08:51:44.076Z,23.19
2023-02-24T08:54:47.034Z,23.26
2023-02-24T08:57:20.535Z,23.46
2023-02-24T08:59:57.879Z,23.43
2023-02-24T09:02:37.267Z,23.38
2023-02-24T09:05:14.629Z,23.38
2023-02-24T09:07:42.586Z,23.37
2023-02-24T09:10:20.461Z,23.45
2023-02-24T09:12:53.689Z,23.59
2023-02-24T09:15:41.649Z,23.65
2023-02-24T09:18:17.307Z,23.38
2023-02-24T09:21:17.060Z,23.36
2023-02-24T09:23:49.872Z,23.36
2023-02-24T09:26:20.920Z,23.44
2023-02-24T09:28:59.803Z,23.44
2023-02-24T09:31:40.998Z,23.47
2023-02-24T09:34:18.736Z,23.32
2023-02-24T09:37:02.899Z,23.39
2023-02-24T09:39:53.310Z,23.47
2023-02-24T09:42:34.915Z,23.36
2023-02-24T09:45:35.933Z,23.31
2023-02-24T09:48:16.699Z,23.27
2023-02-24T09:51:04.509Z,23.37
2023-02-24T09:53:41.257Z,23.28
2023-02-24T09:56:49.337Z,23.25
2023-02-24T09:59:27.455Z,23.32
2023-02-24T10:02:13.026Z,23.40
2023-02-24T10:05:07.548Z,23.51
2023-02-24T10:07:44.073Z,23.63
2023-02-24T10:10:28.284Z,23.49
2023-02-24T10:13:14.973Z,23.58
2023-02-24T10:15:58.805Z,23.60
2023-02-24T10:18:33.453Z,23.63
2023-02-24T10:21:06.642Z,23.56
2023-02-24T10:23:56.783Z,23.65
2023-02-24T10:26:32.032Z,23.60
2023-02-24T10:29:18.978Z,23.70
2023-02-24T10:31:57.983Z,23.67
2023-02-24T10:34:31.955Z,23.60
2023-02-24T10:37:26.228Z,23.64
2023-02-24T10:40:13.119Z,23.60
2023-02-24T10:42:49.878Z,23.74
2023-02-24T10:45:35.382Z,23.73
2023-02-24T10:48:08.566Z,23.69
2023-02-24T10:50:55.313Z,23.70
2023-02-24T10:53:38.065Z,23.69
2023-02-24T10:56:26.715Z,23.63
2023-02-24T10:59:21.980Z,23.70
2023-02-24T11:02:29.570Z,23.71
2023-02-24T11:05:27.336Z,23.75
2023-02-24T11:08:37.860Z,23.87
2023-02-24T11:11:51.186Z,23.85
2023-02-24T11:14:37.704Z,23.92
2023-02-24T11:17:23.155Z,23.85
2023-02-24T11:20:13.397Z,23.90
2023-02-24T11:22:48.472Z,23.83
2023-02-24T11:25:51.435Z,23.97
2023-02-24T11:28:57.407Z,23.98
2023-02-24T11:31:37.273Z,24.04
2023-02-24T11:34:29.314Z,23.96
2023-02-24T11:37:14.672Z,24.02
2023-02-24T11:39:59.108Z,24.13
2023-02-24T11:42:47.066Z,24.15
2023-02-24T11:45:39.552Z,23.98
2023-02-24T11:48:16.008Z,23.98
2023-02-24T11:51:36.360Z,24.10
2023-02-24T11:54:15.446Z,24.01
2023-02-24T11:56:50.380Z,23.98
2023-02-24T11:59:39.865Z,23.94
2023-02-24T12:02:44.300Z,23.92
2023-02-24T12:05:14.959Z,23.94
2023-02-24T12:08:05.178Z,23.89
2023-02-24T12:10:41.639Z,23.92
2023-02-24T12:13:26.499Z,23.99
2023-02-24T12:16:07.891Z,23.98
2023-02-24T12:18:52.196Z,24.03
2023-02-24T12:21:35.682Z,24.03
2023-02-24T12:24:13.873Z,23.95
2023-02-24T12:27:08.037Z,23.93
2023-02-24T12:29:35.579Z,23.99
2023-02-24T12:32:31.431Z,23.95
2023-02-24T12:35:22.501Z,23.97
2023-02-24T12:37:55.037Z,23.98
2023-02-24T12:40:42.141Z,23.96
2023-02-24T12:43:18.377Z,23.93
2023-02-24T12:46:13.978Z,23.98
2023-02-24T12:49:18.863Z,24.02
2023-02-24T12:51:58.548Z,24.00
2023-02-24T12:55:00.441Z,24.12
2023-02-24T12:57:50.413Z,24.16
2023-02-24T13:00:47.379Z,24.23
2023-02-24T13:03:44.391Z,24.21
2023-02-24T13:06:23.246Z,24.15
2023-02-24T13:09:11.004Z,24.06
2023-02-24T13:12:03.308Z,24.12
2023-02-24T13:14:34.864Z,24.20
2023-02-24T13:17:15.231Z,24.15
2023-02-24T13:19:44.539Z,24.10
2023-02-24T13:22:18.364Z,24.11
2023-02-24T13:24:54.942Z,24.13
2023-02-24T13:27:43.087Z,24.13
2023-02-24T13:30:46.969Z,24.11
2023-02-24T13:33:19.826Z,24.13
2023-02-24T13:36:05.124Z,24.14
2023-02-24T13:38:32.873Z,24.15
2023-02-24T13:41:28.703Z,24.09
2023-02-24T13:44:03.957Z,24.16
2023-02-24T13:46:53.444Z,24.18
2023-02-24T13:49:51.939Z,24.20
2023-02-24T13:52:37.973Z,24.17
2023-02-24T13:55:29.569Z,24.18
2023-02-24T13:58:24.552Z,24.18
2023-02-24T14:01:16.773Z,24.19
2023-02-24T14:04:08.092Z,24.19
2023-02-24T14:06:37.025Z,24.22
2023-02-24T14:09:08.291Z,24.18
2023-02-24T14:11:40.829Z,24.26
2023-02-24T14:14:18.760Z,24.23
2023-02-24T14:16:51.238Z,24.13
2023-02-24T14:19:24.684Z,24.21
2023-02-24T14:21:56.168Z,24.22
2023-02-24T14:24:27.555Z,24.17
2023-02-24T14:27:08.193Z,24.29
2023-02-24T14:29:47.113Z,24.33
2023-02-24T14:32:21.759Z,24.31
2023-02-24T14:34:53.457Z,24.32
2023-02-24T14:37:27.692Z,24.34
2023-02-24T14:40:00.696Z,24.35
2023-02-24T14:42:29.417Z,24.34
2023-02-24T14:45:04.997Z,24.35
2023-02-24T14:47:43.269Z,24.36
2023-02-24T14:50:27.643Z,24.32
2023-02-24T14:53:05.177Z,24.30
2023-02-24T14:55:39.954Z,24.29
2023-02-24T14:58:36.503Z,24.24
2023-02-24T15:01:41.384Z,24.25
2023-02-24T15:04:37.108Z,24.29
2023-02-24T15:07:17.442Z,24.38
2023-02-24T15:09:48.263Z,24.39
2023-02-24T15:12:33.472Z,24.43
2023-02-24T15:15:14.597Z,24.51
2023-02-24T15:17:48.871Z,24.46
2023-02-24T15:20:26.387Z,24.33
2023-02-24T15:23:00.569Z,24.32
2023-02-24T15:25:43.708Z,24.43
2023-02-24T15:28:26.496Z,24.40
2023-02-24T15:31:23.998Z,24.33
2023-02-24T15:34:00.443Z,24.29
2023-02-24T15:36:36.414Z,24.26
2023-02-24T15:39:13.665Z,24.38
2023-02-24T15:41:50.135Z,24.32
2023-02-24T15:44:36.107Z,24.39
2023-02-24T15:47:30.144Z,24.30
2023-02-24T15:50:02.744Z,24.37
2023-02-24T15:52:36.659Z,24.49
2023-02-24T15:55:05.504Z,24.51
2023-02-24T15:57:34.224Z,24.35
2023-02-24T16:00:13.394Z,24.22
2023-02-24T16:02:42.094Z,24.33
2023-02-24T16:05:13.898Z,24.51
2023-02-24T16:07:44.845Z,24.61
2023-02-24T16:10:25.579Z,24.51
2023-02-24T16:13:01.907Z,24.47
2023-02-24T16:15:38.386Z,24.40
2023-02-24T16:18:20.972Z,24.32
2023-02-24T16:20:54.814Z,24.30
2023-02-24T16:23:28.317Z,24.31
2023-02-24T16:26:02.536Z,24.43
2023-02-24T16:28:35.449Z,24.47
2023-02-24T16:31:09.161Z,24.55
2023-02-24T16:33:54.132Z,24.43
2023-02-24T16:36:25.571Z,24.53
2023-02-24T16:39:01.318Z,24.46
2023-02-24T16:41:31.167Z,24.38
2023-02-24T16:44:03.940Z,24.44
2023-02-24T16:46:41.515Z,24.40
2023-02-24T16:49:13.713Z,24.56
2023-02-24T16:51:41.302Z,24.53
2023-02-24T16:54:11.973Z,24.53
2023-02-24T16:56:42.539Z,24.52
2023-02-24T16:59:13.843Z,24.51
2023-02-24T17:01:43.688Z,24.56
2023-02-24T17:04:14.395Z,24.57
2023-02-24T17:06:45.434Z,24.50
2023-02-24T17:09:15.781Z,24.55
2023-02-24T17:11:46.320Z,24.49
2023-02-24T17:14:20.232Z,24.78
2023-02-24T17:16:50.900Z,24.75
2023-02-24T17:19:25.774Z,25.01
2023-02-24T17:21:58.689Z,25.06
2023-02-24T17:24:26.311Z,25.29
2023-02-24T17:27:04.535Z,25.58
2023-02-24T17:29:40.993Z,25.53
2023-02-24T17:32:17.617Z,25.49
2023-02-24T17:34:48.065Z,25.07
2023-02-24T17:37:22.264Z,25.13
2023-02-24T17:40:00.509Z,24.79
2023-02-24T17:42:36.674Z,24.92
2023-02-24T17:45:05.954Z,24.97
2023-02-24T17:47:43.448Z,25.00
2023-02-24T17:50:13.487Z,24.74
2023-02-24T17:52:49.887Z,24.85
2023-02-24T17:55:17.692Z,24.66
2023-02-24T17:57:50.467Z,24.68
2023-02-24T18:00:18.865Z,24.66
2023-02-24T18:02:49.189Z,24.60
2023-02-24T18:05:20.190Z,24.67
2023-02-24T18:07:53.229Z,24.61
2023-02-24T18:10:23.861Z,24.57
2023-02-24T18:12:56.659Z,24.48
2023-02-24T18:15:24.009Z,24.36
2023-02-24T18:17:56.601Z,24.23
2023-02-24T18:20:24.908Z,24.05
2023-02-24T18:22:53.018Z,24.02
2023-02-24T18:25:23.475Z,24.11
2023-02-24T18:27:55.882Z,23.99
2023-02-24T18:30:23.200Z,24.02
2023-02-24T18:32:55.717Z,23.96
2023-02-24T18:35:24.509Z,23.93
2023-02-24T18:37:56.900Z,23.93
2023-02-24T18:40:28.799Z,23.95
2023-02-24T18:42:56.113Z,23.82
2023-02-24T18:45:26.377Z,23.85
2023-02-24T18:47:53.900Z,23.85
2023-02-24T18:50:25.028Z,23.80
2023-02-24T18:52:52.348Z,23.81
2023-02-24T18:55:24.925Z,23.80
2023-02-24T18:57:57.151Z,23.83
2023-02-24T19:00:29.668Z,23.84
2023-02-24T19:02:57.029Z,23.79
2023-02-24T19:05:26.005Z,23.82
2023-02-24T19:07:59.381Z,23.83
2023-02-24T19:10:29.300Z,23.81
2023-02-24T19:13:01.513Z,23.79
2023-02-24T19:15:31.019Z,23.76
2023-02-24T19:18:03.273Z,23.79
2023-02-24T19:20:40.867Z,23.72
2023-02-24T19:23:13.743Z,23.68
2023-02-24T19:25:41.046Z,23.69
2023-02-24T19:28:13.809Z,23.70
2023-02-24T19:30:46.621Z,23.67
2023-02-24T19:33:17.692Z,23.67
2023-02-24T19:35:47.353Z,23.73
2023-02-24T19:38:21.119Z,23.70
2023-02-24T19:40:53.305Z,23.67
2023-02-24T19:43:20.607Z,23.59
2023-02-24T19:45:52.757Z,23.66
2023-02-24T19:48:25.787Z,23.63
2023-02-24T19:50:53.093Z,23.61
2023-02-24T19:53:23.963Z,23.61
2023-02-24T19:55:58.566Z,23.65
2023-02-24T19:58:31.047Z,23.58
2023-02-24T20:01:11.002Z,23.63
2023-02-24T20:03:42.849Z,23.62
2023-02-24T20:06:31.791Z,23.63
2023-02-24T20:09:03.721Z,23.59
2023-02-24T20:11:34.268Z,23.61
2023-02-24T20:14:08.356Z,23.61
2023-02-24T20:16:39.107Z,23.54
2023-02-24T20:19:10.047Z,23.53
2023-02-24T20:21:41.318Z,23.58
2023-02-24T20:24:13.784Z,23.57
2023-02-24T20:26:47.299Z,23.55
2023-02-24T20:29:15.856Z,23.62
2023-02-24T20:31:48.975Z,23.57
2023-02-24T20:34:19.078Z,23.62
2023-02-24T20:36:51.700Z,23.59
2023-02-24T20:39:25.947Z,23.70
2023-02-24T20:41:54.648Z,23.60
2023-02-24T20:44:27.483Z,23.52
2023-02-24T20:46:59.332Z,23.53
2023-02-24T20:49:32.944Z,23.60
2023-02-24T20:52:00.267Z,23.71
2023-02-24T20:54:30.437Z,23.72
2023-02-24T20:57:00.760Z,23.66
2023-02-24T20:59:33.232Z,23.68
2023-02-24T21:02:11.387Z,23.65
2023-02-24T21:04:49.687Z,23.62
2023-02-24T21:07:21.525Z,23.62
2023-02-24T21:09:52.320Z,23.70
2023-02-24T21:12:42.609Z,23.62
2023-02-24T21:15:14.887Z,23.49
2023-02-24T21:17:48.383Z,23.61
2023-02-24T21:20:16.964Z,23.71
2023-02-24T21:22:54.677Z,23.67
2023-02-24T21:25:28.313Z,23.45
2023-02-24T21:27:55.630Z,23.52
2023-02-24T21:30:26.115Z,23.57
2023-02-24T21:32:53.494Z,23.64
2023-02-24T21:35:26.453Z,23.52
2023-02-24T21:38:01.647Z,23.48
2023-02-24T21:40:33.174Z,23.40
2023-02-24T21:43:07.945Z,23.37
2023-02-24T21:45:45.794Z,23.39
2023-02-24T21:48:24.992Z,23.35
2023-02-24T21:51:04.415Z,23.42
2023-02-24T21:53:40.825Z,23.34
2023-02-24T21:56:21.242Z,23.38
2023-02-24T21:58:54.788Z,23.36
2023-02-24T22:01:38.979Z,23.37
2023-02-24T22:04:14.260Z,23.33
2023-02-24T22:06:47.686Z,23.34
2023-02-24T22:09:23.651Z,23.34
2023-02-24T22:11:57.163Z,23.34
2023-02-24T22:14:34.569Z,23.33
2023-02-24T22:17:07.431Z,23.34
2023-02-24T22:19:44.040Z,23.34
2023-02-24T22:22:13.738Z,23.33
2023-02-24T22:24:41.824Z,23.33
2023-02-24T22:27:17.773Z,23.39
2023-02-24T22:29:48.681Z,23.39
2023-02-24T22:32:32.092Z,23.40
2023-02-24T22:35:02.321Z,23.41
2023-02-24T22:37:36.796Z,23.41
2023-02-24T22:40:07.848Z,23.42
2023-02-24T22:42:40.634Z,23.42
2023-02-24T22:45:11.675Z,23.39
2023-02-24T22:47:43.252Z,23.41
2023-02-24T22:50:26.234Z,23.63
2023-02-24T22:52:54.565Z,23.56
2023-02-24T22:55:27.561Z,23.67
2023-02-24T22:58:04.746Z,23.50
2023-02-24T23:00:36.250Z,23.55
2023-02-24T23:03:30.689Z,23.59
2023-02-24T23:06:04.915Z,23.58
2023-02-24T23:08:43.413Z,23.62
2023-02-24T23:11:20.975Z,23.52
2023-02-24T23:13:52.201Z,23.57
2023-02-24T23:16:32.704Z,23.56
2023-02-24T23:19:20.043Z,23.66
2023-02-24T23:21:57.093Z,23.50
2023-02-24T23:24:38.269Z,23.50
2023-02-24T23:27:06.363Z,23.55
2023-02-24T23:30:00.182Z,23.43
2023-02-24T23:32:30.768Z,23.44
2023-02-24T23:35:23.762Z,23.40
2023-02-24T23:38:00.009Z,23.45
2023-02-24T23:40:35.956Z,23.43
2023-02-24T23:43:12.643Z,23.44
2023-02-24T23:45:46.666Z,23.42
2023-02-24T23:48:28.764Z,23.37
2023-02-24T23:50:59.541Z,23.41
2023-02-24T23:53:38.913Z,23.38
2023-02-24T23:56:17.684Z,23.40
2023-02-24T23:58:56.710Z,23.38
